Terminal Aerodrome Forecast
Issued by NWS Jackson, MS

Home | Current Version | Previous Version | Text Only | Print | Product List | Glossary On
Versions: 1 2 3 4 5 6 7 8 9 10 11 12 13
000
FTUS44 KJAN 302300
TAFHBG
TAF
KHBG 302331Z 3100/3124 03003KT P6SM BKN250
     FM311400 13005KT P6SM BKN180=

USA.gov is the U.S. government's official web portal to all federal, state and local government web resources and services.